Giltner, Nebraska
Current Conditions -  °F | °C
As of 7:35 AM on Thursday 30 Oct 2014 (Local Time) from KAUH Reporting Station
Clear Clear  
Wind Chill: 36°   Ceiling: Unl
Heat Index: 43°   Visibility: 10mi
Dew Point: 33°   Wind: 12mph
Humidity: 69%   Direction: 310°NW
Pressure: 30.09"   Gusts: NA
Location:  40.77°N, 98.15°W
Report Text: KAUH 301235Z AUTO 31010KT 10SM CLR 06/01 A3009 RMK AO2 T00590007
Loading
Personal Weather Stations






























Interactive Weather Map
Tropical Storm Tracking
New forecast layout! Learn more

10-Day Weather Forecast

Advertisements
Track Severe Weather on mobile